createdAt,value
2018-09-05T00:02:22.138Z,80.54
2018-09-05T00:07:19.976Z,81.22
2018-09-05T00:12:17.443Z,81.82
2018-09-05T00:17:14.864Z,81.43
2018-09-05T00:22:12.300Z,81.76
2018-09-05T00:27:09.707Z,82.09
2018-09-05T00:32:07.107Z,83.10
2018-09-05T00:37:05.207Z,83.58
2018-09-05T00:42:02.640Z,83.87
2018-09-05T00:47:00.060Z,84.03
2018-09-05T00:51:57.483Z,83.70
2018-09-05T00:56:54.973Z,83.08
2018-09-05T01:01:52.367Z,83.46
2018-09-05T01:06:49.847Z,82.87
2018-09-05T01:11:47.219Z,83.39
2018-09-05T01:16:44.652Z,81.95
2018-09-05T01:21:42.076Z,81.97
2018-09-05T01:26:39.527Z,83.52
2018-09-05T01:31:36.993Z,82.13
2018-09-05T01:36:34.423Z,81.01
2018-09-05T01:41:31.823Z,80.27
2018-09-05T01:46:29.244Z,80.54
2018-09-05T01:51:31.252Z,78.74
2018-09-05T01:56:28.673Z,78.65
2018-09-05T02:01:26.067Z,78.30
2018-09-05T02:06:23.580Z,77.45
2018-09-05T02:11:21.058Z,77.70
2018-09-05T02:16:18.529Z,77.31
2018-09-05T02:21:15.928Z,78.75
2018-09-05T02:26:13.303Z,77.37
2018-09-05T02:31:11.262Z,77.81
2018-09-05T02:36:08.676Z,77.91
2018-09-05T02:41:06.127Z,77.56
2018-09-05T02:46:03.586Z,78.70
2018-09-05T02:51:01.103Z,79.29
2018-09-05T02:56:01.860Z,77.90
2018-09-05T03:00:59.277Z,79.17
2018-09-05T03:05:56.839Z,79.23
2018-09-05T03:10:54.257Z,78.28
2018-09-05T03:15:51.767Z,79.30
2018-09-05T03:20:49.176Z,78.73
2018-09-05T03:25:46.590Z,79.79
2018-09-05T03:30:43.979Z,78.85
2018-09-05T03:35:41.378Z,80.10
2018-09-05T03:40:38.812Z,79.08
2018-09-05T03:45:36.805Z,79.13
2018-09-05T03:50:34.220Z,79.31
2018-09-05T03:55:31.631Z,79.66
2018-09-05T04:00:33.458Z,80.75
2018-09-05T04:05:31.321Z,80.70
2018-09-05T04:10:28.789Z,80.78
2018-09-05T04:15:30.487Z,79.95
2018-09-05T04:20:28.186Z,79.86
2018-09-05T04:25:25.612Z,79.68
2018-09-05T04:30:23.093Z,80.45
2018-09-05T04:35:20.549Z,81.02
2018-09-05T04:40:19.001Z,80.78
2018-09-05T04:45:16.592Z,80.31
2018-09-05T04:50:14.013Z,81.08
2018-09-05T04:55:11.428Z,80.60
2018-09-05T05:00:08.877Z,80.31
2018-09-05T05:05:06.424Z,81.09
2018-09-05T05:10:05.459Z,80.13
2018-09-05T05:15:02.872Z,81.04
2018-09-05T05:20:01.247Z,80.33
2018-09-05T05:24:58.656Z,71.43
2018-09-05T05:29:57.291Z,65.39
2018-09-05T05:34:54.682Z,59.51
2018-09-05T05:40:04.273Z,58.43
2018-09-05T05:45:02.036Z,56.76
2018-09-05T05:49:59.480Z,59.36
2018-09-05T05:54:56.911Z,61.21
2018-09-05T05:59:54.335Z,61.00
2018-09-05T06:04:52.003Z,64.72
2018-09-05T06:09:50.462Z,59.87
2018-09-05T06:14:47.871Z,66.07
2018-09-05T06:19:45.499Z,69.81
2018-09-05T06:24:42.976Z,71.45
2018-09-05T06:29:40.413Z,72.48
2018-09-05T06:34:37.819Z,72.21
2018-09-05T06:39:38.291Z,73.24
2018-09-05T06:44:35.801Z,71.13
2018-09-05T06:49:33.724Z,70.28
2018-09-05T06:54:31.152Z,70.65
2018-09-05T06:59:28.586Z,69.56
2018-09-05T07:04:26.006Z,69.28
2018-09-05T07:09:29.555Z,70.08
2018-09-05T07:14:27.235Z,68.04
2018-09-05T07:19:24.707Z,66.72
2018-09-05T07:24:22.191Z,66.27
2018-09-05T07:29:19.590Z,64.32
2018-09-05T07:34:17.035Z,64.44
2018-09-05T07:39:22.717Z,64.31
2018-09-05T07:44:20.272Z,65.40
2018-09-05T07:49:17.686Z,62.52
2018-09-05T07:54:16.577Z,61.09
2018-09-05T07:59:14.171Z,60.90
2018-09-05T08:04:11.650Z,59.80
2018-09-05T08:09:12.793Z,59.80
2018-09-05T08:14:10.268Z,60.23
2018-09-05T08:19:07.713Z,59.48
2018-09-05T08:24:05.153Z,58.70
2018-09-05T08:29:02.588Z,57.44
2018-09-05T08:34:00.019Z,58.86
2018-09-05T08:38:57.837Z,57.15
2018-09-05T08:43:55.335Z,55.32
2018-09-05T08:48:52.601Z,54.81
2018-09-05T08:53:50.341Z,55.50
2018-09-05T08:58:47.781Z,52.40
2018-09-05T09:03:45.431Z,53.00
2018-09-05T09:08:42.887Z,51.37
2018-09-05T09:13:40.355Z,52.30
2018-09-05T09:18:37.829Z,49.80
2018-09-05T09:23:35.267Z,49.05
2018-09-05T09:28:32.694Z,49.54
2018-09-05T09:33:30.120Z,49.91
2018-09-05T09:38:27.559Z,49.08
2018-09-05T09:43:25.008Z,49.60
2018-09-05T09:48:22.411Z,49.17
2018-09-05T09:53:19.797Z,50.65
2018-09-05T09:58:17.387Z,49.49
2018-09-05T10:03:20.644Z,46.06
2018-09-05T10:08:23.675Z,46.75
2018-09-05T10:13:26.575Z,46.61
2018-09-05T10:18:26.934Z,46.25
2018-09-05T10:23:24.671Z,47.74
2018-09-05T10:28:22.133Z,46.71
2018-09-05T10:33:19.555Z,48.40
2018-09-05T10:38:16.967Z,44.71
2018-09-05T10:43:14.391Z,45.79
2018-09-05T10:48:13.260Z,46.02
2018-09-05T10:53:10.749Z,45.03
2018-09-05T10:58:08.230Z,46.24
2018-09-05T11:03:05.766Z,45.91
2018-09-05T11:08:03.242Z,44.47
2018-09-05T11:13:00.702Z,44.04
2018-09-05T11:17:58.199Z,42.96
2018-09-05T11:22:55.616Z,44.21
2018-09-05T11:27:53.071Z,44.26
2018-09-05T11:32:50.498Z,42.67
2018-09-05T11:37:48.013Z,40.40
2018-09-05T11:42:45.427Z,41.32
2018-09-05T11:47:42.834Z,38.85
2018-09-05T11:52:40.301Z,39.46
2018-09-05T11:57:37.705Z,37.29
2018-09-05T12:02:35.182Z,37.93
2018-09-05T12:07:32.615Z,37.61
2018-09-05T12:12:30.126Z,36.88
2018-09-05T12:17:28.405Z,37.83
2018-09-05T12:22:25.900Z,37.95
2018-09-05T12:27:24.322Z,38.29
2018-09-05T12:32:21.764Z,34.99
2018-09-05T12:37:19.190Z,35.67
2018-09-05T12:42:18.917Z,41.80
2018-09-05T12:47:17.030Z,42.24
2018-09-05T12:52:14.507Z,42.15
2018-09-05T12:57:12.731Z,38.07
2018-09-05T13:02:10.172Z,37.37
2018-09-05T13:07:07.755Z,41.54
2018-09-05T13:12:05.422Z,39.86
2018-09-05T13:17:02.853Z,39.74
2018-09-05T13:22:00.286Z,40.87
2018-09-05T13:26:57.739Z,40.88
2018-09-05T13:31:55.610Z,40.67
2018-09-05T13:36:53.047Z,41.75
2018-09-05T13:41:50.536Z,42.51
2018-09-05T13:46:48.193Z,42.04
2018-09-05T13:51:51.211Z,42.03
2018-09-05T13:56:48.666Z,42.43
2018-09-05T14:01:46.085Z,41.06
2018-09-05T14:06:43.510Z,41.33
2018-09-05T14:11:41.091Z,40.89
2018-09-05T14:16:38.528Z,42.24
2018-09-05T14:21:35.998Z,44.12
2018-09-05T14:26:33.454Z,42.30
2018-09-05T14:31:30.948Z,40.32
2018-09-05T14:36:28.483Z,40.98
2018-09-05T14:41:25.924Z,41.22
2018-09-05T14:46:23.375Z,40.99
2018-09-05T14:51:20.816Z,43.77
2018-09-05T14:56:18.243Z,43.09
2018-09-05T15:01:15.769Z,41.93
2018-09-05T15:06:13.204Z,42.89
2018-09-05T15:11:10.678Z,41.86
2018-09-05T15:16:08.109Z,43.02
2018-09-05T15:21:05.931Z,44.06
2018-09-05T15:26:03.571Z,43.69
2018-09-05T15:31:01.011Z,43.81
2018-09-05T15:36:05.047Z,42.38
2018-09-05T15:41:03.040Z,42.84
2018-09-05T15:46:00.589Z,44.45
2018-09-05T15:50:58.148Z,42.45
2018-09-05T15:55:56.780Z,43.30
2018-09-05T16:00:54.191Z,44.71
2018-09-05T16:05:51.635Z,43.29
2018-09-05T16:10:51.509Z,44.67
2018-09-05T16:15:52.726Z,44.91
2018-09-05T16:20:50.227Z,43.52
2018-09-05T16:25:47.721Z,44.46
2018-09-05T16:30:45.187Z,44.55
2018-09-05T16:35:42.651Z,44.01
2018-09-05T16:40:40.189Z,43.16
2018-09-05T16:45:37.715Z,42.90
2018-09-05T16:50:35.185Z,43.07
2018-09-05T16:55:33.472Z,42.71
2018-09-05T17:00:31.847Z,43.61
2018-09-05T17:05:29.428Z,42.26
2018-09-05T17:10:29.428Z,42.77
2018-09-05T17:15:26.883Z,44.21
2018-09-05T17:20:25.990Z,43.86
2018-09-05T17:25:23.499Z,44.34
2018-09-05T17:30:26.424Z,45.08
2018-09-05T17:35:23.966Z,46.47
2018-09-05T17:40:24.816Z,47.60
2018-09-05T17:45:24.533Z,47.62
2018-09-05T17:50:22.055Z,47.78
2018-09-05T17:55:19.523Z,48.25
2018-09-05T18:00:16.959Z,48.54
2018-09-05T18:05:14.399Z,49.76
2018-09-05T18:10:12.486Z,50.17
2018-09-05T18:15:09.926Z,49.34
2018-09-05T18:20:07.415Z,49.06
2018-09-05T18:25:05.120Z,50.06
2018-09-05T18:30:02.904Z,50.16
2018-09-05T18:35:00.307Z,50.13
2018-09-05T18:39:58.760Z,49.78
2018-09-05T18:44:56.170Z,51.32
2018-09-05T18:49:53.627Z,51.63
2018-09-05T18:54:51.038Z,51.62
2018-09-05T18:59:48.467Z,52.84
2018-09-05T19:04:45.947Z,53.18
2018-09-05T19:09:46.427Z,53.93
2018-09-05T19:14:43.895Z,55.59
2018-09-05T19:19:41.291Z,55.16
2018-09-05T19:24:38.713Z,53.72
2018-09-05T19:29:36.123Z,56.13
2018-09-05T19:34:33.521Z,56.23
2018-09-05T19:39:41.263Z,55.17
2018-09-05T19:44:38.731Z,56.32
2018-09-05T19:49:36.118Z,56.65
2018-09-05T19:54:33.515Z,57.19
2018-09-05T19:59:30.919Z,56.35
2018-09-05T20:04:28.332Z,58.91
2018-09-05T20:09:30.427Z,57.89
2018-09-05T20:14:28.014Z,59.15
2018-09-05T20:19:25.475Z,58.91
2018-09-05T20:24:22.996Z,58.36
2018-09-05T20:29:20.395Z,57.61
2018-09-05T20:34:20.343Z,58.38
2018-09-05T20:39:21.908Z,58.78
2018-09-05T20:44:23.853Z,59.87
2018-09-05T20:49:24.840Z,60.52
2018-09-05T20:54:24.967Z,59.28
2018-09-05T20:59:31.210Z,60.26
2018-09-05T21:04:33.533Z,59.70
2018-09-05T21:09:38.727Z,59.48
2018-09-05T21:14:43.897Z,60.07
2018-09-05T21:19:43.367Z,60.45
2018-09-05T21:24:40.819Z,60.33
2018-09-05T21:29:38.252Z,61.53
2018-09-05T21:34:35.751Z,60.89
2018-09-05T21:39:43.455Z,61.00
2018-09-05T21:44:40.930Z,61.53
2018-09-05T21:49:38.315Z,61.58
2018-09-05T21:54:35.827Z,61.86
2018-09-05T21:59:33.272Z,61.72
2018-09-05T22:04:30.691Z,62.74
2018-09-05T22:09:32.824Z,62.28
2018-09-05T22:14:30.302Z,62.91
2018-09-05T22:19:27.744Z,63.16
2018-09-05T22:24:25.178Z,63.38
2018-09-05T22:29:22.664Z,63.67
2018-09-05T22:34:20.088Z,64.89
2018-09-05T22:39:32.979Z,64.80
2018-09-05T22:44:41.820Z,64.71
2018-09-05T22:49:56.052Z,65.20
2018-09-05T22:55:10.236Z,64.91
2018-09-05T23:00:28.660Z,66.18
2018-09-05T23:06:24.013Z,65.92
2018-09-05T23:12:36.693Z,66.11
2018-09-05T23:17:45.487Z,66.90
2018-09-05T23:22:54.143Z,67.55
2018-09-05T23:27:51.558Z,66.58
2018-09-05T23:32:48.981Z,68.21
2018-09-05T23:37:46.394Z,67.69
2018-09-05T23:42:43.804Z,68.46
2018-09-05T23:47:41.232Z,68.46
2018-09-05T23:52:38.639Z,69.62
2018-09-05T23:57:37.939Z,69.84
